createdAt,value
2022-12-23T00:03:19.867Z,30.98
2022-12-23T00:08:21.545Z,31.73
2022-12-23T00:13:41.849Z,29.73
2022-12-23T00:18:44.178Z,29.50
2022-12-23T00:23:46.802Z,27.13
2022-12-23T00:28:48.600Z,30.42
2022-12-23T00:33:51.282Z,29.48
2022-12-23T00:39:11.767Z,26.75
2022-12-23T00:44:13.104Z,35.55
2022-12-23T00:49:34.342Z,37.17
2022-12-23T00:54:36.083Z,35.40
2022-12-23T00:59:37.558Z,30.45
2022-12-23T01:04:57.531Z,38.47
2022-12-23T01:09:58.976Z,49.28
2022-12-23T01:15:00.476Z,58.63
2022-12-23T01:20:02.021Z,56.13
2022-12-23T01:25:03.457Z,54.30
2022-12-23T01:30:05.300Z,54.47
2022-12-23T01:35:07.029Z,63.67
2022-12-23T01:40:08.973Z,62.95
2022-12-23T01:45:28.590Z,58.22
2022-12-23T01:50:35.109Z,48.85
2022-12-23T01:55:39.262Z,36.28
2022-12-23T02:01:00.304Z,36.67
2022-12-23T02:06:22.192Z,43.95
2022-12-23T02:11:26.524Z,45.50
2022-12-23T02:16:28.752Z,45.83
2022-12-23T02:21:42.072Z,37.13
2022-12-23T02:26:55.445Z,33.10
2022-12-23T02:32:05.925Z,34.88
2022-12-23T02:37:16.576Z,29.77
2022-12-23T02:42:24.227Z,29.38
2022-12-23T02:47:48.700Z,32.83
2022-12-23T02:52:50.935Z,30.88
2022-12-23T02:57:55.083Z,30.20
2022-12-23T03:02:56.652Z,33.28
2022-12-23T03:08:00.172Z,30.15
2022-12-23T03:13:26.883Z,28.60
2022-12-23T03:18:37.351Z,29.27
2022-12-23T03:23:42.047Z,31.15
2022-12-23T03:28:46.089Z,31.48
2022-12-23T03:33:50.288Z,30.52
2022-12-23T03:38:55.875Z,31.00
2022-12-23T03:44:05.488Z,34.50
2022-12-23T03:49:14.224Z,32.85
2022-12-23T03:54:18.448Z,31.42
2022-12-23T03:59:21.753Z,34.85
2022-12-23T04:04:30.010Z,33.45
2022-12-23T04:09:31.499Z,35.20
2022-12-23T04:14:34.360Z,34.85
2022-12-23T04:19:35.827Z,35.95
2022-12-23T04:24:37.245Z,33.85
2022-12-23T04:29:38.869Z,34.28
2022-12-23T04:34:40.307Z,41.88
2022-12-23T04:39:41.768Z,34.25
2022-12-23T04:44:43.159Z,36.08
2022-12-23T04:49:44.584Z,34.60
2022-12-23T04:54:46.645Z,33.70
2022-12-23T04:59:48.202Z,35.88
2022-12-23T05:04:50.145Z,37.85
2022-12-23T05:09:51.543Z,37.33
2022-12-23T05:14:52.927Z,39.78
2022-12-23T05:19:54.305Z,36.78
2022-12-23T05:24:55.703Z,32.22
2022-12-23T05:29:57.259Z,34.65
2022-12-23T05:34:58.643Z,39.53
2022-12-23T05:40:00.108Z,36.65
2022-12-23T05:45:01.739Z,33.47
2022-12-23T05:50:03.461Z,32.13
2022-12-23T05:55:07.183Z,36.45
2022-12-23T06:00:09.776Z,32.88
2022-12-23T06:05:11.411Z,37.55
2022-12-23T06:10:12.847Z,41.78
2022-12-23T06:15:15.679Z,45.70
2022-12-23T06:20:20.795Z,43.22
2022-12-23T06:25:22.756Z,46.38
2022-12-23T06:30:24.165Z,49.35
2022-12-23T06:35:25.571Z,46.20
2022-12-23T06:40:29.096Z,42.08
2022-12-23T06:45:30.642Z,47.85
2022-12-23T06:50:32.074Z,46.47
2022-12-23T06:55:33.580Z,42.00
2022-12-23T07:00:35.299Z,40.13
2022-12-23T07:05:37.840Z,46.78
2022-12-23T07:10:39.408Z,38.33
2022-12-23T07:15:40.795Z,35.40
2022-12-23T07:20:42.325Z,31.50
2022-12-23T07:25:43.721Z,33.60
2022-12-23T07:30:45.245Z,35.25
2022-12-23T07:35:46.655Z,28.45
2022-12-23T07:40:48.961Z,29.50
2022-12-23T07:45:57.323Z,28.05
2022-12-23T07:51:02.051Z,23.85
2022-12-23T07:56:03.599Z,23.48
2022-12-23T08:01:07.788Z,18.50
2022-12-23T08:06:12.402Z,15.77
2022-12-23T08:11:15.635Z,15.88
2022-12-23T08:16:18.630Z,15.90
2022-12-23T08:21:20.383Z,16.63
2022-12-23T08:26:22.685Z,16.75
2022-12-23T08:31:25.775Z,11.80
2022-12-23T08:36:31.569Z,11.32
2022-12-23T08:41:35.625Z,11.68
2022-12-23T08:46:37.594Z,11.05
2022-12-23T08:51:39.237Z,12.13
2022-12-23T08:56:41.649Z,10.88
2022-12-23T09:01:43.267Z,9.27
2022-12-23T09:06:46.987Z,11.38
2022-12-23T09:11:48.363Z,9.15
2022-12-23T09:16:50.593Z,10.68
2022-12-23T09:21:52.002Z,9.60
2022-12-23T09:26:53.427Z,9.35
2022-12-23T09:31:55.153Z,8.50
2022-12-23T09:36:56.657Z,9.02
2022-12-23T09:42:03.534Z,9.45
2022-12-23T09:47:06.232Z,8.57
2022-12-23T09:52:10.544Z,7.93
2022-12-23T09:57:22.079Z,9.75
2022-12-23T10:02:39.081Z,10.18
2022-12-23T10:07:44.254Z,10.98
2022-12-23T10:12:49.586Z,8.98
2022-12-23T10:17:53.014Z,10.27
2022-12-23T10:22:55.331Z,12.88
2022-12-23T10:27:56.739Z,11.73
2022-12-23T10:32:58.980Z,14.57
2022-12-23T10:38:07.866Z,15.20
2022-12-23T10:43:12.025Z,13.25
2022-12-23T10:48:32.915Z,11.45
2022-12-23T10:53:39.071Z,14.05
2022-12-23T10:58:42.328Z,13.45
2022-12-23T11:03:53.670Z,16.13
2022-12-23T11:08:56.538Z,15.35
2022-12-23T11:13:57.914Z,19.05
2022-12-23T11:19:03.730Z,16.88
2022-12-23T11:24:09.956Z,17.63
2022-12-23T11:29:13.144Z,20.23
2022-12-23T11:34:18.601Z,17.27
2022-12-23T11:39:25.433Z,22.25
2022-12-23T11:44:41.529Z,19.27
2022-12-23T11:49:47.384Z,16.83
2022-12-23T11:54:56.566Z,16.25
2022-12-23T12:00:00.184Z,18.20
2022-12-23T12:05:08.622Z,15.45
2022-12-23T12:10:13.750Z,17.85
2022-12-23T12:15:37.233Z,17.55
2022-12-23T12:21:04.913Z,15.98
2022-12-23T12:26:08.289Z,13.52
2022-12-23T12:31:29.323Z,16.02
2022-12-23T12:36:37.108Z,16.75
2022-12-23T12:41:39.753Z,18.40
2022-12-23T12:46:45.032Z,15.93
2022-12-23T12:51:55.273Z,15.85
2022-12-23T12:56:57.579Z,16.52
2022-12-23T13:02:02.300Z,15.90
2022-12-23T13:07:13.588Z,15.32
2022-12-23T13:12:18.060Z,17.17
2022-12-23T13:17:22.207Z,14.38
2022-12-23T13:22:32.291Z,14.95
2022-12-23T13:27:33.981Z,13.18
2022-12-23T13:32:44.334Z,14.95
2022-12-23T13:37:51.504Z,15.18
2022-12-23T13:42:55.928Z,15.40
2022-12-23T13:48:07.953Z,12.02
2022-12-23T13:53:16.413Z,11.80
2022-12-23T13:58:24.772Z,13.00
2022-12-23T14:03:34.705Z,13.63
2022-12-23T14:08:42.504Z,12.93
2022-12-23T14:13:45.812Z,12.38
2022-12-23T14:19:03.445Z,13.23
2022-12-23T14:24:23.515Z,10.77
2022-12-23T14:29:40.467Z,12.70
2022-12-23T14:35:01.794Z,10.90
2022-12-23T14:40:22.168Z,12.65
2022-12-23T14:45:35.408Z,15.93
2022-12-23T14:50:41.780Z,16.60
2022-12-23T14:55:45.048Z,18.25
2022-12-23T15:00:47.830Z,19.65
2022-12-23T15:05:51.082Z,18.98
2022-12-23T15:10:53.575Z,16.90
2022-12-23T15:16:01.335Z,15.80
2022-12-23T15:21:12.613Z,17.15
2022-12-23T15:26:14.070Z,16.40
2022-12-23T15:31:39.458Z,20.33
2022-12-23T15:36:42.772Z,20.27
2022-12-23T15:41:45.043Z,20.63
2022-12-23T15:46:46.489Z,20.23
2022-12-23T15:52:09.707Z,20.85
2022-12-23T15:57:17.863Z,17.48
2022-12-23T16:02:59.833Z,16.27
2022-12-23T16:08:19.362Z,17.05
2022-12-23T16:13:25.462Z,17.73
2022-12-23T16:18:31.707Z,13.52
2022-12-23T16:23:34.895Z,17.08
2022-12-23T16:28:39.377Z,14.07
2022-12-23T16:33:43.532Z,14.73
2022-12-23T16:38:47.335Z,15.35
2022-12-23T16:43:52.470Z,14.20
2022-12-23T16:48:56.052Z,13.85
2022-12-23T16:53:58.103Z,17.00
2022-12-23T16:58:59.571Z,15.18
2022-12-23T17:04:01.075Z,13.73
2022-12-23T17:09:02.758Z,16.40
2022-12-23T17:14:09.240Z,15.13
2022-12-23T17:19:12.042Z,15.45
2022-12-23T17:24:23.406Z,16.65
2022-12-23T17:29:24.880Z,15.00
2022-12-23T17:34:26.580Z,16.63
2022-12-23T17:39:28.033Z,16.98
2022-12-23T17:44:29.434Z,20.70
2022-12-23T17:49:30.844Z,18.88
2022-12-23T17:54:32.396Z,19.88
2022-12-23T17:59:34.042Z,19.85
2022-12-23T18:04:35.481Z,19.85
2022-12-23T18:09:36.895Z,18.08
2022-12-23T18:14:38.449Z,14.63
2022-12-23T18:19:39.860Z,13.85
2022-12-23T18:24:41.284Z,16.70
2022-12-23T18:29:43.140Z,14.85
2022-12-23T18:34:44.548Z,17.25
2022-12-23T18:39:45.978Z,17.95
2022-12-23T18:44:50.972Z,17.55
2022-12-23T18:49:52.959Z,16.95
2022-12-23T18:54:54.469Z,16.05
2022-12-23T18:59:55.932Z,19.77
2022-12-23T19:04:57.480Z,18.63
2022-12-23T19:09:58.988Z,17.45
2022-12-23T19:15:00.502Z,18.55
2022-12-23T19:20:01.954Z,17.20
2022-12-23T19:25:06.375Z,14.20
2022-12-23T19:30:09.270Z,18.52
2022-12-23T19:35:14.055Z,15.15
2022-12-23T19:40:15.839Z,16.67
2022-12-23T19:45:17.462Z,14.13
2022-12-23T19:50:20.035Z,12.05
2022-12-23T19:55:21.778Z,12.20
2022-12-23T20:00:23.316Z,8.88
2022-12-23T20:05:25.105Z,9.13
2022-12-23T20:10:26.606Z,13.20
2022-12-23T20:15:28.096Z,11.90
2022-12-23T20:20:29.579Z,12.55
2022-12-23T20:25:31.082Z,12.60
2022-12-23T20:30:32.724Z,15.05
2022-12-23T20:35:34.375Z,13.48
2022-12-23T20:40:35.836Z,14.43
2022-12-23T20:45:37.286Z,20.42
2022-12-23T20:50:41.916Z,15.20
2022-12-23T20:55:43.672Z,16.25
2022-12-23T21:00:45.368Z,13.55
2022-12-23T21:05:46.777Z,15.02
2022-12-23T21:10:52.432Z,14.32
2022-12-23T21:15:54.130Z,14.50
2022-12-23T21:21:03.163Z,16.02
2022-12-23T21:26:08.819Z,15.20
2022-12-23T21:31:10.421Z,17.38
2022-12-23T21:36:17.847Z,15.00
2022-12-23T21:41:22.708Z,17.83
2022-12-23T21:46:24.678Z,19.95
2022-12-23T21:51:30.439Z,28.38
2022-12-23T21:56:36.499Z,22.63
2022-12-23T22:01:38.114Z,21.55
2022-12-23T22:06:41.317Z,21.42
2022-12-23T22:11:42.820Z,19.35
2022-12-23T22:16:44.343Z,20.17
2022-12-23T22:21:45.856Z,18.63
2022-12-23T22:26:47.312Z,21.45
2022-12-23T22:31:49.595Z,27.65
2022-12-23T22:36:51.233Z,22.40
2022-12-23T22:41:52.900Z,28.40
2022-12-23T22:46:54.342Z,24.75
2022-12-23T22:51:55.992Z,20.98
2022-12-23T22:56:57.483Z,16.52
2022-12-23T23:01:59.024Z,14.15
2022-12-23T23:07:00.487Z,15.35
2022-12-23T23:12:01.880Z,13.35
2022-12-23T23:17:03.334Z,15.23
2022-12-23T23:22:04.847Z,11.57
2022-12-23T23:27:06.927Z,15.55
2022-12-23T23:32:08.531Z,10.35
2022-12-23T23:37:10.496Z,10.85
2022-12-23T23:42:11.994Z,12.55
2022-12-23T23:47:13.426Z,15.65
2022-12-23T23:52:14.893Z,14.75
2022-12-23T23:57:16.647Z,14.90
